sensor_id;sensor_type;location;lat;lon;timestamp;pressure;altitude;pressure_sealevel;temperature;humidity
42247;BME280;27913;42.722;23.268;2024-03-02T00:00:22;94154.03;;;7.50;97.97
42247;BME280;27913;42.722;23.268;2024-03-02T00:02:50;94440.56;;;9.36;97.91
42247;BME280;27913;42.722;23.268;2024-03-02T00:05:20;94356.09;;;8.84;97.77
42247;BME280;27913;42.722;23.268;2024-03-02T00:07:57;94363.97;;;8.84;97.54
42247;BME280;27913;42.722;23.268;2024-03-02T00:10:30;94438.28;;;9.33;97.76
42247;BME280;27913;42.722;23.268;2024-03-02T00:13:02;94433.25;;;9.32;97.86
42247;BME280;27913;42.722;23.268;2024-03-02T00:15:47;94354.03;;;8.79;97.95
42247;BME280;27913;42.722;23.268;2024-03-02T00:18:14;94442.72;;;9.26;98.15
42247;BME280;27913;42.722;23.268;2024-03-02T00:20:42;94360.09;;;8.79;98.04
42247;BME280;27913;42.722;23.268;2024-03-02T00:23:09;94436.25;;;9.28;97.86
42247;BME280;27913;42.722;23.268;2024-03-02T00:25:54;94387.81;;;8.89;97.78
42247;BME280;27913;42.722;23.268;2024-03-02T00:28:40;94424.88;;;9.14;97.94
42247;BME280;27913;42.722;23.268;2024-03-02T00:31:12;94426.09;;;9.12;97.00
42247;BME280;27913;42.722;23.268;2024-03-02T00:33:45;94314.59;;;8.37;96.27
42247;BME280;27913;42.722;23.268;2024-03-02T00:36:12;94428.47;;;9.06;96.32
42247;BME280;27913;42.722;23.268;2024-03-02T00:38:50;94418.56;;;9.09;95.87
42247;BME280;27913;42.722;23.268;2024-03-02T00:41:32;94422.84;;;9.10;95.29
42247;BME280;27913;42.722;23.268;2024-03-02T00:43:59;94098.78;;;7.16;94.58
42247;BME280;27913;42.722;23.268;2024-03-02T00:46:33;94246.72;;;8.13;94.40
42247;BME280;27913;42.722;23.268;2024-03-02T00:49:00;94356.66;;;8.79;94.66
42247;BME280;27913;42.722;23.268;2024-03-02T00:51:30;94427.13;;;9.24;94.78
42247;BME280;27913;42.722;23.268;2024-03-02T00:54:00;94419.94;;;9.33;94.57
42247;BME280;27913;42.722;23.268;2024-03-02T00:56:26;94303.94;;;8.67;95.08
42247;BME280;27913;42.722;23.268;2024-03-02T00:58:52;94351.34;;;9.01;94.94
42247;BME280;27913;42.722;23.268;2024-03-02T01:03:54;94161.88;;;7.79;95.39
42247;BME280;27913;42.722;23.268;2024-03-02T01:06:20;94402.41;;;9.40;96.08
42247;BME280;27913;42.722;23.268;2024-03-02T01:08:47;94353.44;;;9.19;95.58
42247;BME280;27913;42.722;23.268;2024-03-02T01:11:16;94204.88;;;8.20;95.55
42247;BME280;27913;42.722;23.268;2024-03-02T01:13:43;94158.97;;;7.95;95.45
42247;BME280;27913;42.722;23.268;2024-03-02T01:16:08;94266.78;;;8.56;95.56
42247;BME280;27913;42.722;23.268;2024-03-02T01:18:34;94219.09;;;8.39;95.61
42247;BME280;27913;42.722;23.268;2024-03-02T01:21:00;93995.81;;;7.17;95.12
42247;BME280;27913;42.722;23.268;2024-03-02T01:23:25;94368.75;;;9.58;95.17
42247;BME280;27913;42.722;23.268;2024-03-02T01:25:51;94093.50;;;7.89;95.24
42247;BME280;27913;42.722;23.268;2024-03-02T01:28:18;94403.00;;;9.85;95.21
42247;BME280;27913;42.722;23.268;2024-03-02T01:30:44;94318.78;;;9.24;95.09
42247;BME280;27913;42.722;23.268;2024-03-02T01:33:10;94413.03;;;9.68;95.21
42247;BME280;27913;42.722;23.268;2024-03-02T01:35:36;94267.03;;;8.62;95.96
42247;BME280;27913;42.722;23.268;2024-03-02T01:38:03;94401.75;;;9.32;97.56
42247;BME280;27913;42.722;23.268;2024-03-02T01:40:29;94385.81;;;9.33;98.13
42247;BME280;27913;42.722;23.268;2024-03-02T01:42:54;94324.34;;;8.72;98.69
42247;BME280;27913;42.722;23.268;2024-03-02T01:45:21;94318.63;;;8.61;99.28
42247;BME280;27913;42.722;23.268;2024-03-02T01:47:47;94408.81;;;8.96;100.00
42247;BME280;27913;42.722;23.268;2024-03-02T01:50:12;94401.69;;;8.89;100.00
42247;BME280;27913;42.722;23.268;2024-03-02T01:52:39;94396.69;;;8.94;100.00
42247;BME280;27913;42.722;23.268;2024-03-02T01:55:05;94399.06;;;8.89;100.00
42247;BME280;27913;42.722;23.268;2024-03-02T01:57:32;94406.47;;;8.79;100.00
42247;BME280;27913;42.722;23.268;2024-03-02T01:59:58;94397.56;;;8.73;100.00
42247;BME280;27913;42.722;23.268;2024-03-02T02:02:23;94389.50;;;8.75;100.00
42247;BME280;27913;42.722;23.268;2024-03-02T02:04:49;94344.84;;;8.61;100.00
42247;BME280;27913;42.722;23.268;2024-03-02T02:07:15;94398.75;;;8.99;100.00
42247;BME280;27913;42.722;23.268;2024-03-02T02:09:44;94374.34;;;8.99;100.00
42247;BME280;27913;42.722;23.268;2024-03-02T02:12:10;94385.25;;;9.02;100.00
42247;BME280;27913;42.722;23.268;2024-03-02T02:14:36;94386.78;;;9.18;100.00
42247;BME280;27913;42.722;23.268;2024-03-02T02:17:02;94395.88;;;9.29;100.00
42247;BME280;27913;42.722;23.268;2024-03-02T02:19:27;94192.06;;;8.03;100.00
42247;BME280;27913;42.722;23.268;2024-03-02T02:21:54;94407.25;;;9.43;100.00
42247;BME280;27913;42.722;23.268;2024-03-02T02:24:19;94257.16;;;8.64;99.95
42247;BME280;27913;42.722;23.268;2024-03-02T02:26:45;93994.31;;;7.01;99.46
42247;BME280;27913;42.722;23.268;2024-03-02T02:29:11;94381.06;;;9.50;100.00
42247;BME280;27913;42.722;23.268;2024-03-02T02:31:37;94358.59;;;9.34;98.97
42247;BME280;27913;42.722;23.268;2024-03-02T02:34:04;94292.41;;;8.97;99.19
42247;BME280;27913;42.722;23.268;2024-03-02T02:36:29;94413.75;;;9.48;99.15
42247;BME280;27913;42.722;23.268;2024-03-02T02:38:55;94025.16;;;7.12;98.61
42247;BME280;27913;42.722;23.268;2024-03-02T02:41:21;94386.53;;;9.56;98.66
42247;BME280;27913;42.722;23.268;2024-03-02T02:43:46;94377.41;;;9.45;98.44
42247;BME280;27913;42.722;23.268;2024-03-02T02:46:12;94349.50;;;9.37;98.86
42247;BME280;27913;42.722;23.268;2024-03-02T02:48:37;94394.66;;;9.68;98.40
42247;BME280;27913;42.722;23.268;2024-03-02T02:51:03;94395.66;;;9.66;98.48
42247;BME280;27913;42.722;23.268;2024-03-02T02:53:28;94403.38;;;9.68;97.71
42247;BME280;27913;42.722;23.268;2024-03-02T02:55:54;94398.13;;;9.68;97.67
42247;BME280;27913;42.722;23.268;2024-03-02T02:58:20;94405.78;;;9.70;97.85
42247;BME280;27913;42.722;23.268;2024-03-02T03:00:46;94201.63;;;8.53;98.21
42247;BME280;27913;42.722;23.268;2024-03-02T03:03:12;94047.78;;;7.56;97.53
42247;BME280;27913;42.722;23.268;2024-03-02T03:05:37;93997.28;;;7.27;97.05
42247;BME280;27913;42.722;23.268;2024-03-02T03:08:03;94404.19;;;9.82;97.42
42247;BME280;27913;42.722;23.268;2024-03-02T03:10:28;94383.53;;;9.59;96.57
42247;BME280;27913;42.722;23.268;2024-03-02T03:12:54;94413.88;;;9.75;96.68
42247;BME280;27913;42.722;23.268;2024-03-02T03:15:21;94087.31;;;7.68;96.66
42247;BME280;27913;42.722;23.268;2024-03-02T03:17:47;94391.03;;;9.69;97.34
42247;BME280;27913;42.722;23.268;2024-03-02T03:20:12;94391.22;;;9.67;97.10
42247;BME280;27913;42.722;23.268;2024-03-02T03:22:40;94394.88;;;9.66;97.34
42247;BME280;27913;42.722;23.268;2024-03-02T03:25:06;94389.81;;;9.64;97.56
42247;BME280;27913;42.722;23.268;2024-03-02T03:27:33;94411.25;;;9.68;97.01
42247;BME280;27913;42.722;23.268;2024-03-02T03:30:00;94400.53;;;9.70;97.48
42247;BME280;27913;42.722;23.268;2024-03-02T03:32:26;94403.59;;;9.73;97.38
42247;BME280;27913;42.722;23.268;2024-03-02T03:34:51;94249.97;;;8.79;96.72
42247;BME280;27913;42.722;23.268;2024-03-02T03:37:17;94357.78;;;9.40;96.68
42247;BME280;27913;42.722;23.268;2024-03-02T03:39:42;94414.22;;;9.58;97.17
42247;BME280;27913;42.722;23.268;2024-03-02T03:42:08;94321.91;;;9.05;97.69
42247;BME280;27913;42.722;23.268;2024-03-02T03:44:33;94366.84;;;9.31;98.33
42247;BME280;27913;42.722;23.268;2024-03-02T03:46:59;94342.91;;;9.05;98.56
42247;BME280;27913;42.722;23.268;2024-03-02T03:49:27;94396.53;;;9.38;98.77
42247;BME280;27913;42.722;23.268;2024-03-02T03:51:52;94246.56;;;8.50;98.63
42247;BME280;27913;42.722;23.268;2024-03-02T03:54:18;94311.75;;;8.89;98.90
42247;BME280;27913;42.722;23.268;2024-03-02T03:56:43;94323.94;;;9.10;98.85
42247;BME280;27913;42.722;23.268;2024-03-02T03:59:09;94210.44;;;8.45;98.77
42247;BME280;27913;42.722;23.268;2024-03-02T04:01:35;94392.22;;;9.59;98.98
42247;BME280;27913;42.722;23.268;2024-03-02T04:04:00;94047.16;;;7.25;98.63
42247;BME280;27913;42.722;23.268;2024-03-02T04:06:28;94409.66;;;9.38;99.21
42247;BME280;27913;42.722;23.268;2024-03-02T04:08:54;94216.81;;;8.01;99.67
42247;BME280;27913;42.722;23.268;2024-03-02T04:11:19;94320.50;;;8.45;100.00
42247;BME280;27913;42.722;23.268;2024-03-02T04:13:45;94153.09;;;7.36;100.00
42247;BME280;27913;42.722;23.268;2024-03-02T04:16:11;93916.44;;;6.02;100.00
42247;BME280;27913;42.722;23.268;2024-03-02T04:18:37;94261.25;;;8.16;100.00
42247;BME280;27913;42.722;23.268;2024-03-02T04:21:05;94406.19;;;8.96;100.00
42247;BME280;27913;42.722;23.268;2024-03-02T04:23:30;94159.56;;;7.40;100.00
42247;BME280;27913;42.722;23.268;2024-03-02T04:25:56;94401.09;;;8.87;100.00
42247;BME280;27913;42.722;23.268;2024-03-02T04:28:21;94165.50;;;7.27;100.00
42247;BME280;27913;42.722;23.268;2024-03-02T04:30:47;94403.56;;;8.45;100.00
42247;BME280;27913;42.722;23.268;2024-03-02T04:33:13;94395.75;;;8.30;100.00
42247;BME280;27913;42.722;23.268;2024-03-02T04:35:38;94406.81;;;8.25;100.00
42247;BME280;27913;42.722;23.268;2024-03-02T04:38:04;94407.38;;;8.20;100.00
42247;BME280;27913;42.722;23.268;2024-03-02T04:40:30;94110.13;;;6.27;100.00
42247;BME280;27913;42.722;23.268;2024-03-02T04:42:55;94407.53;;;7.97;100.00
42247;BME280;27913;42.722;23.268;2024-03-02T04:45:21;94394.44;;;7.97;100.00
42247;BME280;27913;42.722;23.268;2024-03-02T04:47:46;94411.44;;;7.86;100.00
42247;BME280;27913;42.722;23.268;2024-03-02T04:50:12;94408.75;;;7.79;100.00
42247;BME280;27913;42.722;23.268;2024-03-02T04:52:38;94418.13;;;7.73;100.00
42247;BME280;27913;42.722;23.268;2024-03-02T04:55:03;94022.59;;;5.34;100.00
42247;BME280;27913;42.722;23.268;2024-03-02T04:57:43;94377.84;;;7.53;100.00
42247;BME280;27913;42.722;23.268;2024-03-02T05:00:10;94404.84;;;7.90;100.00
42247;BME280;27913;42.722;23.268;2024-03-02T05:02:35;94415.66;;;8.02;100.00
42247;BME280;27913;42.722;23.268;2024-03-02T05:05:01;94408.50;;;8.11;100.00
42247;BME280;27913;42.722;23.268;2024-03-02T05:07:28;94416.47;;;8.03;100.00
42247;BME280;27913;42.722;23.268;2024-03-02T05:09:53;94250.22;;;6.96;100.00
42247;BME280;27913;42.722;23.268;2024-03-02T05:12:19;94415.72;;;8.09;100.00
42247;BME280;27913;42.722;23.268;2024-03-02T05:14:45;94006.47;;;5.46;100.00
42247;BME280;27913;42.722;23.268;2024-03-02T05:17:11;94431.91;;;7.97;100.00
42247;BME280;27913;42.722;23.268;2024-03-02T05:19:37;94350.50;;;7.55;100.00
42247;BME280;27913;42.722;23.268;2024-03-02T05:22:03;94151.19;;;6.34;100.00
42247;BME280;27913;42.722;23.268;2024-03-02T05:24:29;94250.78;;;7.06;100.00
42247;BME280;27913;42.722;23.268;2024-03-02T05:26:54;94427.75;;;8.25;100.00
42247;BME280;27913;42.722;23.268;2024-03-02T05:29:20;94439.31;;;8.31;100.00
42247;BME280;27913;42.722;23.268;2024-03-02T05:31:46;94444.31;;;8.26;100.00
42247;BME280;27913;42.722;23.268;2024-03-02T05:34:12;94438.00;;;8.20;100.00
42247;BME280;27913;42.722;23.268;2024-03-02T05:36:37;94294.81;;;7.24;100.00
42247;BME280;27913;42.722;23.268;2024-03-02T05:39:05;94432.88;;;8.12;100.00
42247;BME280;27913;42.722;23.268;2024-03-02T05:41:32;94264.69;;;7.13;100.00
42247;BME280;27913;42.722;23.268;2024-03-02T05:43:57;94457.31;;;8.19;100.00
42247;BME280;27913;42.722;23.268;2024-03-02T05:46:23;94452.69;;;8.21;100.00
42247;BME280;27913;42.722;23.268;2024-03-02T05:48:48;94448.84;;;8.17;100.00
42247;BME280;27913;42.722;23.268;2024-03-02T05:51:14;94402.63;;;7.72;100.00
42247;BME280;27913;42.722;23.268;2024-03-02T05:53:39;94452.81;;;8.13;100.00
42247;BME280;27913;42.722;23.268;2024-03-02T05:56:06;94368.38;;;7.52;100.00
42247;BME280;27913;42.722;23.268;2024-03-02T05:58:32;94460.63;;;7.91;100.00
42247;BME280;27913;42.722;23.268;2024-03-02T06:01:17;94462.63;;;7.89;100.00
42247;BME280;27913;42.722;23.268;2024-03-02T06:03:43;94464.25;;;7.90;100.00
42247;BME280;27913;42.722;23.268;2024-03-02T06:06:09;94298.09;;;6.96;100.00
42247;BME280;27913;42.722;23.268;2024-03-02T06:08:35;94451.22;;;7.96;100.00
42247;BME280;27913;42.722;23.268;2024-03-02T06:11:01;94453.78;;;7.90;100.00
42247;BME280;27913;42.722;23.268;2024-03-02T06:13:26;94451.22;;;7.96;100.00
42247;BME280;27913;42.722;23.268;2024-03-02T06:15:52;94307.66;;;7.04;100.00
42247;BME280;27913;42.722;23.268;2024-03-02T06:18:18;94465.50;;;7.94;100.00
42247;BME280;27913;42.722;23.268;2024-03-02T06:20:43;94467.66;;;8.05;100.00
42247;BME280;27913;42.722;23.268;2024-03-02T18:20:30;94562.19;;;6.64;100.00
42247;BME280;27913;42.722;23.268;2024-03-02T18:22:58;94446.81;;;6.06;100.00
42247;BME280;27913;42.722;23.268;2024-03-02T18:25:25;94523.84;;;6.80;100.00
42247;BME280;27913;42.722;23.268;2024-03-02T18:27:50;94399.13;;;6.35;100.00
42247;BME280;27913;42.722;23.268;2024-03-02T18:30:16;94445.16;;;6.75;100.00
42247;BME280;27913;42.722;23.268;2024-03-02T18:32:41;94517.69;;;7.35;100.00
42247;BME280;27913;42.722;23.268;2024-03-02T18:35:08;94655.13;;;8.30;100.00
42247;BME280;27913;42.722;23.268;2024-03-02T18:37:35;94566.19;;;7.91;100.00
42247;BME280;27913;42.722;23.268;2024-03-02T18:40:01;94439.75;;;7.30;100.00
42247;BME280;27913;42.722;23.268;2024-03-02T18:42:27;94647.53;;;8.65;100.00
42247;BME280;27913;42.722;23.268;2024-03-02T18:47:36;94423.41;;;7.28;100.00
42247;BME280;27913;42.722;23.268;2024-03-02T18:50:05;94641.13;;;8.68;100.00
42247;BME280;27913;42.722;23.268;2024-03-02T18:52:36;94465.72;;;7.62;100.00
42247;BME280;27913;42.722;23.268;2024-03-02T18:55:05;94492.53;;;7.79;100.00
42247;BME280;27913;42.722;23.268;2024-03-02T18:57:32;94654.09;;;8.91;100.00
42247;BME280;27913;42.722;23.268;2024-03-02T18:59:59;94656.59;;;9.00;100.00
42247;BME280;27913;42.722;23.268;2024-03-02T19:02:24;94266.91;;;6.64;100.00
42247;BME280;27913;42.722;23.268;2024-03-02T19:04:51;94648.63;;;9.08;100.00
42247;BME280;27913;42.722;23.268;2024-03-02T19:07:17;94231.91;;;6.59;100.00
42247;BME280;27913;42.722;23.268;2024-03-02T19:09:43;94387.78;;;7.42;100.00
42247;BME280;27913;42.722;23.268;2024-03-02T19:12:08;94505.84;;;8.37;100.00
42247;BME280;27913;42.722;23.268;2024-03-02T19:14:34;94661.16;;;9.13;100.00
42247;BME280;27913;42.722;23.268;2024-03-02T19:17:00;94531.00;;;8.31;100.00
42247;BME280;27913;42.722;23.268;2024-03-02T19:19:25;94661.66;;;9.01;100.00
42247;BME280;27913;42.722;23.268;2024-03-02T19:21:51;94663.28;;;9.02;100.00
42247;BME280;27913;42.722;23.268;2024-03-02T19:24:17;94659.22;;;9.00;100.00
42247;BME280;27913;42.722;23.268;2024-03-02T19:26:43;94560.03;;;8.51;100.00
42247;BME280;27913;42.722;23.268;2024-03-02T19:29:09;94668.03;;;9.14;100.00
42247;BME280;27913;42.722;23.268;2024-03-02T19:31:34;94513.97;;;8.05;100.00
42247;BME280;27913;42.722;23.268;2024-03-02T19:34:00;94579.31;;;8.58;100.00
42247;BME280;27913;42.722;23.268;2024-03-02T19:36:25;94584.19;;;8.62;100.00
42247;BME280;27913;42.722;23.268;2024-03-02T19:38:53;94548.22;;;8.40;100.00
42247;BME280;27913;42.722;23.268;2024-03-02T19:41:19;94578.69;;;8.56;100.00
42247;BME280;27913;42.722;23.268;2024-03-02T19:43:47;94654.66;;;9.09;100.00
42247;BME280;27913;42.722;23.268;2024-03-02T19:46:13;94584.06;;;8.70;100.00
42247;BME280;27913;42.722;23.268;2024-03-02T19:48:39;94554.75;;;8.44;100.00
42247;BME280;27913;42.722;23.268;2024-03-02T19:51:05;94577.13;;;8.62;100.00
42247;BME280;27913;42.722;23.268;2024-03-02T19:53:31;94469.28;;;7.91;100.00
42247;BME280;27913;42.722;23.268;2024-03-02T19:55:56;94659.13;;;9.08;100.00
42247;BME280;27913;42.722;23.268;2024-03-02T19:58:22;94666.59;;;9.11;100.00
42247;BME280;27913;42.722;23.268;2024-03-02T20:00:47;94438.72;;;7.77;100.00
42247;BME280;27913;42.722;23.268;2024-03-02T20:03:13;94665.41;;;9.14;100.00
42247;BME280;27913;42.722;23.268;2024-03-02T20:05:39;94428.47;;;7.60;100.00
42247;BME280;27913;42.722;23.268;2024-03-02T20:08:05;94671.03;;;9.11;100.00
42247;BME280;27913;42.722;23.268;2024-03-02T20:10:33;94688.56;;;9.10;100.00
42247;BME280;27913;42.722;23.268;2024-03-02T20:12:58;94685.34;;;9.08;100.00
42247;BME280;27913;42.722;23.268;2024-03-02T20:15:25;94675.03;;;9.06;100.00
42247;BME280;27913;42.722;23.268;2024-03-02T20:17:51;94685.28;;;9.01;100.00
42247;BME280;27913;42.722;23.268;2024-03-02T20:20:17;94515.78;;;8.04;100.00
42247;BME280;27913;42.722;23.268;2024-03-02T20:22:43;94677.41;;;9.01;100.00
42247;BME280;27913;42.722;23.268;2024-03-02T20:25:08;94678.13;;;8.95;100.00
42247;BME280;27913;42.722;23.268;2024-03-02T20:27:38;94526.00;;;7.99;100.00
42247;BME280;27913;42.722;23.268;2024-03-02T20:30:07;94628.94;;;8.60;100.00
42247;BME280;27913;42.722;23.268;2024-03-02T20:32:33;94513.25;;;7.96;100.00
42247;BME280;27913;42.722;23.268;2024-03-02T20:34:59;94679.31;;;8.92;100.00
42247;BME280;27913;42.722;23.268;2024-03-02T20:37:24;94677.50;;;8.93;100.00
42247;BME280;27913;42.722;23.268;2024-03-02T20:39:50;94591.63;;;8.43;100.00
42247;BME280;27913;42.722;23.268;2024-03-02T20:42:22;94673.91;;;8.94;100.00
42247;BME280;27913;42.722;23.268;2024-03-02T20:44:48;94679.13;;;8.94;100.00
42247;BME280;27913;42.722;23.268;2024-03-02T20:47:15;94671.00;;;8.89;100.00
42247;BME280;27913;42.722;23.268;2024-03-02T20:49:40;94649.53;;;8.63;100.00
42247;BME280;27913;42.722;23.268;2024-03-02T20:52:08;94678.88;;;8.74;100.00
42247;BME280;27913;42.722;23.268;2024-03-02T20:54:34;94432.59;;;7.24;100.00
42247;BME280;27913;42.722;23.268;2024-03-02T20:56:59;94599.13;;;8.31;100.00
42247;BME280;27913;42.722;23.268;2024-03-02T20:59:30;94664.06;;;8.81;100.00
42247;BME280;27913;42.722;23.268;2024-03-02T21:01:56;94303.31;;;6.36;100.00
42247;BME280;27913;42.722;23.268;2024-03-02T21:04:21;94540.78;;;8.07;100.00
42247;BME280;27913;42.722;23.268;2024-03-02T21:06:47;94679.66;;;8.89;100.00
42247;BME280;27913;42.722;23.268;2024-03-02T21:09:12;94525.91;;;8.07;100.00
42247;BME280;27913;42.722;23.268;2024-03-02T21:11:38;94668.34;;;9.04;100.00
42247;BME280;27913;42.722;23.268;2024-03-02T21:14:04;94297.13;;;6.67;100.00
42247;BME280;27913;42.722;23.268;2024-03-02T21:16:29;94670.59;;;9.07;100.00
42247;BME280;27913;42.722;23.268;2024-03-02T21:18:55;94667.06;;;9.15;100.00
42247;BME280;27913;42.722;23.268;2024-03-02T21:21:21;94669.47;;;9.16;100.00
42247;BME280;27913;42.722;23.268;2024-03-02T21:23:46;94528.03;;;8.34;100.00
42247;BME280;27913;42.722;23.268;2024-03-02T21:26:12;94588.78;;;8.75;100.00
42247;BME280;27913;42.722;23.268;2024-03-02T21:28:38;94587.75;;;8.76;100.00
42247;BME280;27913;42.722;23.268;2024-03-02T21:31:05;94657.00;;;9.18;100.00
42247;BME280;27913;42.722;23.268;2024-03-02T21:33:30;94663.28;;;9.24;100.00
42247;BME280;27913;42.722;23.268;2024-03-02T21:35:56;94581.38;;;8.63;100.00
42247;BME280;27913;42.722;23.268;2024-03-02T21:38:21;94280.91;;;6.57;100.00
42247;BME280;27913;42.722;23.268;2024-03-02T21:40:49;94676.25;;;8.89;100.00
42247;BME280;27913;42.722;23.268;2024-03-02T21:43:14;94667.94;;;8.85;100.00
42247;BME280;27913;42.722;23.268;2024-03-02T21:45:40;94642.75;;;8.69;100.00
42247;BME280;27913;42.722;23.268;2024-03-02T21:48:06;94659.91;;;8.72;100.00
42247;BME280;27913;42.722;23.268;2024-03-02T21:50:31;94678.63;;;8.68;100.00
42247;BME280;27913;42.722;23.268;2024-03-02T21:52:57;94671.75;;;8.52;100.00
42247;BME280;27913;42.722;23.268;2024-03-02T21:55:24;94509.75;;;7.28;100.00
42247;BME280;27913;42.722;23.268;2024-03-02T21:57:49;94664.53;;;8.09;100.00
42247;BME280;27913;42.722;23.268;2024-03-02T22:00:15;94285.34;;;5.47;100.00
42247;BME280;27913;42.722;23.268;2024-03-02T22:02:43;94693.03;;;7.89;100.00
42247;BME280;27913;42.722;23.268;2024-03-02T22:05:09;94550.47;;;7.07;100.00
42247;BME280;27913;42.722;23.268;2024-03-02T22:07:34;94656.69;;;7.55;100.00
42247;BME280;27913;42.722;23.268;2024-03-02T22:10:00;94682.84;;;7.55;100.00
42247;BME280;27913;42.722;23.268;2024-03-02T22:12:25;94483.22;;;6.31;100.00
42247;BME280;27913;42.722;23.268;2024-03-02T22:14:51;94389.09;;;5.68;100.00
42247;BME280;27913;42.722;23.268;2024-03-02T22:17:17;94346.94;;;5.48;100.00
42247;BME280;27913;42.722;23.268;2024-03-02T22:19:45;94516.84;;;6.57;100.00
42247;BME280;27913;42.722;23.268;2024-03-02T22:22:11;94482.81;;;6.42;100.00
42247;BME280;27913;42.722;23.268;2024-03-02T22:24:36;94496.81;;;6.49;100.00
42247;BME280;27913;42.722;23.268;2024-03-02T22:27:02;94674.13;;;7.40;100.00
42247;BME280;27913;42.722;23.268;2024-03-02T22:29:28;94696.78;;;7.47;100.00
42247;BME280;27913;42.722;23.268;2024-03-02T22:31:54;94398.75;;;5.60;100.00
42247;BME280;27913;42.722;23.268;2024-03-02T22:34:19;94698.72;;;7.54;100.00
42247;BME280;27913;42.722;23.268;2024-03-02T22:36:45;94690.44;;;7.65;100.00
42247;BME280;27913;42.722;23.268;2024-03-02T22:39:11;94526.66;;;6.79;100.00
42247;BME280;27913;42.722;23.268;2024-03-02T22:41:36;94530.84;;;6.88;100.00
42247;BME280;27913;42.722;23.268;2024-03-02T22:44:02;94694.94;;;7.95;100.00
42247;BME280;27913;42.722;23.268;2024-03-02T22:46:28;94694.25;;;8.01;100.00
42247;BME280;27913;42.722;23.268;2024-03-02T22:48:53;94686.03;;;8.04;100.00
42247;BME280;27913;42.722;23.268;2024-03-02T22:51:26;94703.16;;;8.07;100.00
42247;BME280;27913;42.722;23.268;2024-03-02T22:53:52;94710.28;;;7.98;100.00
42247;BME280;27913;42.722;23.268;2024-03-02T22:56:18;94692.41;;;7.87;100.00
42247;BME280;27913;42.722;23.268;2024-03-02T22:58:44;94643.91;;;7.52;100.00
42247;BME280;27913;42.722;23.268;2024-03-02T23:01:10;94539.97;;;6.92;100.00
42247;BME280;27913;42.722;23.268;2024-03-02T23:03:39;94670.25;;;7.74;100.00
42247;BME280;27913;42.722;23.268;2024-03-02T23:06:08;94688.25;;;7.92;100.00
42247;BME280;27913;42.722;23.268;2024-03-02T23:08:34;94602.97;;;7.44;100.00
42247;BME280;27913;42.722;23.268;2024-03-02T23:11:01;94631.75;;;7.59;100.00
42247;BME280;27913;42.722;23.268;2024-03-02T23:13:27;94700.19;;;7.95;100.00
42247;BME280;27913;42.722;23.268;2024-03-02T23:15:54;94378.88;;;5.82;100.00
42247;BME280;27913;42.722;23.268;2024-03-02T23:18:20;94502.66;;;6.75;100.00
42247;BME280;27913;42.722;23.268;2024-03-02T23:20:46;94707.66;;;7.98;100.00
42247;BME280;27913;42.722;23.268;2024-03-02T23:23:11;94473.13;;;6.51;100.00
42247;BME280;27913;42.722;23.268;2024-03-02T23:25:37;94705.13;;;7.90;100.00
42247;BME280;27913;42.722;23.268;2024-03-02T23:28:04;94574.28;;;7.12;100.00
42247;BME280;27913;42.722;23.268;2024-03-02T23:30:30;94549.25;;;6.95;100.00
42247;BME280;27913;42.722;23.268;2024-03-02T23:32:56;94368.63;;;5.80;100.00
42247;BME280;27913;42.722;23.268;2024-03-02T23:35:21;94696.13;;;7.92;100.00
42247;BME280;27913;42.722;23.268;2024-03-02T23:37:48;94701.69;;;7.89;100.00
42247;BME280;27913;42.722;23.268;2024-03-02T23:40:14;94700.72;;;7.90;100.00
42247;BME280;27913;42.722;23.268;2024-03-02T23:43:00;94569.34;;;7.18;100.00
42247;BME280;27913;42.722;23.268;2024-03-02T23:45:26;94694.25;;;8.01;100.00
42247;BME280;27913;42.722;23.268;2024-03-02T23:47:51;94705.88;;;7.98;100.00
42247;BME280;27913;42.722;23.268;2024-03-02T23:50:17;94700.63;;;7.98;100.00
42247;BME280;27913;42.722;23.268;2024-03-02T23:52:43;94693.88;;;8.04;100.00
42247;BME280;27913;42.722;23.268;2024-03-02T23:55:09;94497.25;;;6.76;100.00
42247;BME280;27913;42.722;23.268;2024-03-02T23:57:35;94685.66;;;7.92;100.00
